createdAt,value
2023-04-25T00:00:27.198Z,100.00
2023-04-25T00:02:57.013Z,100.00
2023-04-25T00:05:25.250Z,100.00
2023-04-25T00:07:53.881Z,100.00
2023-04-25T00:10:21.776Z,100.00
2023-04-25T00:12:49.790Z,100.00
2023-04-25T00:15:18.957Z,100.00
2023-04-25T00:17:47.637Z,100.00
2023-04-25T00:20:15.642Z,100.00
2023-04-25T00:22:43.515Z,100.00
2023-04-25T00:25:11.280Z,100.00
2023-04-25T00:27:40.099Z,100.00
2023-04-25T00:30:08.986Z,100.00
2023-04-25T00:32:38.267Z,100.00
2023-04-25T00:35:06.971Z,100.00
2023-04-25T00:37:34.835Z,100.00
2023-04-25T00:40:03.350Z,100.00
2023-04-25T00:42:31.771Z,100.00
2023-04-25T00:45:00.610Z,100.00
2023-04-25T00:47:28.611Z,100.00
2023-04-25T00:49:57.741Z,100.00
2023-04-25T00:52:25.675Z,100.00
2023-04-25T00:54:53.461Z,100.00
2023-04-25T00:57:21.271Z,100.00
2023-04-25T00:59:49.740Z,100.00
2023-04-25T01:02:17.603Z,100.00
2023-04-25T01:04:45.449Z,100.00
2023-04-25T01:07:14.691Z,100.00
2023-04-25T01:09:43.121Z,100.00
2023-04-25T01:12:11.204Z,100.00
2023-04-25T01:14:39.040Z,100.00
2023-04-25T01:17:08.679Z,100.00
2023-04-25T01:19:37.147Z,100.00
2023-04-25T01:22:06.650Z,100.00
2023-04-25T01:24:35.245Z,100.00
2023-04-25T01:27:03.972Z,100.00
2023-04-25T01:29:32.871Z,100.00
2023-04-25T01:32:01.756Z,100.00
2023-04-25T01:34:29.529Z,100.00
2023-04-25T01:36:57.351Z,100.00
2023-04-25T01:39:26.965Z,100.00
2023-04-25T01:41:55.733Z,100.00
2023-04-25T01:44:25.001Z,100.00
2023-04-25T01:46:52.990Z,100.00
2023-04-25T01:49:21.122Z,100.00
2023-04-25T01:51:48.818Z,100.00
2023-04-25T01:54:16.666Z,100.00
2023-04-25T01:56:46.019Z,100.00
2023-04-25T01:59:13.877Z,100.00
2023-04-25T02:01:41.650Z,100.00
2023-04-25T02:04:09.690Z,100.00
2023-04-25T02:06:37.573Z,100.00
2023-04-25T02:09:05.454Z,100.00
2023-04-25T02:11:33.263Z,100.00
2023-04-25T02:14:02.311Z,100.00
2023-04-25T02:16:31.785Z,100.00
2023-04-25T02:19:00.071Z,100.00
2023-04-25T02:21:27.881Z,100.00
2023-04-25T02:23:55.686Z,100.00
2023-04-25T02:26:24.775Z,100.00
2023-04-25T02:28:53.056Z,100.00
2023-04-25T02:31:22.382Z,100.00
2023-04-25T02:33:51.028Z,100.00
2023-04-25T02:36:18.860Z,100.00
2023-04-25T02:38:46.653Z,100.00
2023-04-25T02:41:14.428Z,100.00
2023-04-25T02:43:42.174Z,100.00
2023-04-25T02:46:09.929Z,100.00
2023-04-25T02:48:38.994Z,100.00
2023-04-25T02:51:06.892Z,100.00
2023-04-25T02:53:34.795Z,100.00
2023-04-25T02:56:02.858Z,100.00
2023-04-25T02:58:30.564Z,100.00
2023-04-25T03:00:58.419Z,100.00
2023-04-25T03:03:26.461Z,100.00
2023-04-25T03:05:55.672Z,100.00
2023-04-25T03:08:23.819Z,100.00
2023-04-25T03:10:53.083Z,100.00
2023-04-25T03:13:20.846Z,100.00
2023-04-25T03:15:48.549Z,100.00
2023-04-25T03:18:16.403Z,100.00
2023-04-25T03:20:44.718Z,100.00
2023-04-25T03:23:13.831Z,100.00
2023-04-25T03:25:41.610Z,100.00
2023-04-25T03:28:09.545Z,100.00
2023-04-25T03:30:37.482Z,100.00
2023-04-25T03:33:05.307Z,100.00
2023-04-25T03:35:33.169Z,100.00
2023-04-25T03:38:01.052Z,100.00
2023-04-25T03:40:30.404Z,100.00
2023-04-25T03:42:58.549Z,100.00
2023-04-25T03:45:26.265Z,100.00
2023-04-25T03:47:54.136Z,100.00
2023-04-25T03:50:22.663Z,100.00
2023-04-25T03:52:50.897Z,100.00
2023-04-25T03:55:18.758Z,100.00
2023-04-25T03:57:47.853Z,100.00
2023-04-25T04:00:16.543Z,100.00
2023-04-25T04:02:45.601Z,100.00
2023-04-25T04:05:14.004Z,100.00
2023-04-25T04:07:43.644Z,100.00
2023-04-25T04:10:12.749Z,100.00
2023-04-25T04:12:40.963Z,100.00
2023-04-25T04:15:11.223Z,100.00
2023-04-25T04:17:39.028Z,100.00
2023-04-25T04:20:08.778Z,100.00
2023-04-25T04:22:36.639Z,100.00
2023-04-25T04:25:06.752Z,100.00
2023-04-25T04:27:35.403Z,100.00
2023-04-25T04:30:04.340Z,100.00
2023-04-25T04:32:34.522Z,100.00
2023-04-25T04:35:02.358Z,100.00
2023-04-25T04:37:30.159Z,100.00
2023-04-25T04:39:58.175Z,100.00
2023-04-25T04:42:26.318Z,100.00
2023-04-25T04:44:55.934Z,100.00
2023-04-25T04:47:24.716Z,100.00
2023-04-25T04:49:53.903Z,100.00
2023-04-25T04:52:21.638Z,100.00
2023-04-25T04:54:49.449Z,100.00
2023-04-25T04:57:17.764Z,100.00
2023-04-25T04:59:45.594Z,100.00
2023-04-25T05:02:13.473Z,100.00
2023-04-25T05:04:41.449Z,100.00
2023-04-25T05:07:10.992Z,100.00
2023-04-25T05:09:38.801Z,100.00
2023-04-25T05:12:07.094Z,100.00
2023-04-25T05:14:35.026Z,100.00
2023-04-25T05:17:05.714Z,100.00
2023-04-25T05:19:34.321Z,100.00
2023-04-25T05:22:02.208Z,100.00
2023-04-25T05:24:31.652Z,100.00
2023-04-25T05:26:59.630Z,100.00
2023-04-25T05:29:27.318Z,100.00
2023-04-25T05:31:55.204Z,100.00
2023-04-25T05:34:23.011Z,100.00
2023-04-25T05:36:50.919Z,100.00
2023-04-25T05:39:18.992Z,100.00
2023-04-25T05:41:48.106Z,100.00
2023-04-25T05:44:17.147Z,100.00
2023-04-25T05:46:45.419Z,100.00
2023-04-25T05:49:13.330Z,100.00
2023-04-25T05:51:43.597Z,100.00
2023-04-25T05:54:11.784Z,100.00
2023-04-25T05:56:39.710Z,100.00
2023-04-25T05:59:08.878Z,100.00
2023-04-25T06:01:36.999Z,100.00
2023-04-25T06:04:05.496Z,100.00
2023-04-25T06:06:33.802Z,100.00
2023-04-25T06:09:01.965Z,100.00
2023-04-25T06:11:29.876Z,100.00
2023-04-25T06:13:58.114Z,100.00
2023-04-25T06:16:27.813Z,100.00
2023-04-25T06:18:56.295Z,100.00
2023-04-25T06:21:24.325Z,100.00
2023-04-25T06:23:52.376Z,100.00
2023-04-25T06:26:20.630Z,100.00
2023-04-25T06:28:48.462Z,100.00
2023-04-25T06:31:16.332Z,100.00
2023-04-25T06:33:45.530Z,100.00
2023-04-25T06:36:13.325Z,100.00
2023-04-25T06:38:41.529Z,100.00
2023-04-25T06:41:09.291Z,100.00
2023-04-25T06:43:37.048Z,100.00
2023-04-25T06:46:04.815Z,100.00
2023-04-25T06:48:32.512Z,100.00
2023-04-25T06:51:01.599Z,100.00
2023-04-25T06:53:29.591Z,100.00
2023-04-25T06:55:57.412Z,100.00
2023-04-25T06:58:25.233Z,100.00
2023-04-25T07:00:53.218Z,100.00
2023-04-25T07:03:23.329Z,100.00
2023-04-25T07:05:51.655Z,100.00
2023-04-25T07:08:21.680Z,100.00
2023-04-25T07:10:50.207Z,100.00
2023-04-25T07:13:18.046Z,100.00
2023-04-25T07:15:46.074Z,100.00
2023-04-25T07:18:13.840Z,100.00
2023-04-25T07:20:41.816Z,100.00
2023-04-25T07:23:09.653Z,100.00
2023-04-25T07:25:38.861Z,100.00
2023-04-25T07:28:06.749Z,100.00
2023-04-25T07:30:40.476Z,100.00
2023-04-25T07:33:08.242Z,100.00
2023-04-25T07:35:36.204Z,100.00
2023-04-25T07:38:04.386Z,100.00
2023-04-25T07:40:32.324Z,100.00
2023-04-25T07:43:01.676Z,100.00
2023-04-25T07:45:29.588Z,100.00
2023-04-25T07:47:57.523Z,100.00
2023-04-25T07:50:25.928Z,100.00
2023-04-25T07:52:53.706Z,100.00
2023-04-25T07:55:21.456Z,100.00
2023-04-25T07:57:49.159Z,100.00
2023-04-25T08:00:19.460Z,100.00
2023-04-25T08:02:47.293Z,100.00
2023-04-25T08:05:16.622Z,100.00
2023-04-25T08:07:46.143Z,100.00
2023-04-25T08:10:13.914Z,100.00
2023-04-25T08:12:41.827Z,100.00
2023-04-25T08:15:10.789Z,100.00
2023-04-25T08:17:39.978Z,100.00
2023-04-25T08:20:09.902Z,100.00
2023-04-25T08:22:37.947Z,100.00
2023-04-25T08:25:06.580Z,100.00
2023-04-25T08:27:34.315Z,100.00
2023-04-25T08:30:02.948Z,100.00
2023-04-25T08:32:31.283Z,100.00
2023-04-25T08:35:00.581Z,100.00
2023-04-25T08:37:28.391Z,100.00
2023-04-25T08:39:59.368Z,100.00
2023-04-25T08:42:29.931Z,100.00
2023-04-25T08:44:58.325Z,100.00
2023-04-25T08:47:28.516Z,100.00
2023-04-25T08:49:56.694Z,100.00
2023-04-25T08:52:26.262Z,100.00
2023-04-25T08:54:56.476Z,100.00
2023-04-25T08:57:25.450Z,100.00
2023-04-25T08:59:54.862Z,100.00
2023-04-25T09:02:22.758Z,100.00
2023-04-25T09:04:51.713Z,100.00
2023-04-25T09:07:22.397Z,100.00
2023-04-25T09:09:51.554Z,100.00
2023-04-25T09:12:20.561Z,100.00
2023-04-25T09:15:05.057Z,100.00
2023-04-25T09:17:33.264Z,100.00
2023-04-25T09:20:09.613Z,100.00
2023-04-25T09:22:38.505Z,100.00
2023-04-25T09:25:11.453Z,100.00
2023-04-25T09:27:51.569Z,100.00
2023-04-25T09:30:19.500Z,100.00
2023-04-25T09:32:47.372Z,100.00
2023-04-25T09:35:25.942Z,100.00
2023-04-25T09:37:53.866Z,100.00
2023-04-25T09:40:23.259Z,100.00
2023-04-25T09:42:51.454Z,100.00
2023-04-25T09:45:19.308Z,100.00
2023-04-25T09:47:47.172Z,100.00
2023-04-25T09:50:20.128Z,100.00
2023-04-25T09:52:47.981Z,100.00
2023-04-25T09:55:17.040Z,100.00
2023-04-25T09:57:51.620Z,100.00
2023-04-25T10:00:22.336Z,100.00
2023-04-25T10:02:53.206Z,100.00
2023-04-25T10:05:21.222Z,100.00
2023-04-25T10:07:49.120Z,100.00
2023-04-25T10:10:17.701Z,100.00
2023-04-25T10:12:47.699Z,100.00
2023-04-25T10:15:17.174Z,100.00
2023-04-25T10:17:45.921Z,100.00
2023-04-25T10:20:14.113Z,100.00
2023-04-25T10:22:44.801Z,100.00
2023-04-25T10:25:14.468Z,100.00
2023-04-25T10:27:42.494Z,100.00
2023-04-25T10:30:16.784Z,85.77
2023-04-25T10:32:46.373Z,81.77
2023-04-25T10:35:17.607Z,68.36
2023-04-25T10:38:01.972Z,69.66
2023-04-25T10:40:30.234Z,66.83
2023-04-25T10:43:18.342Z,68.27
2023-04-25T10:45:56.848Z,71.40
2023-04-25T10:48:28.568Z,77.88
2023-04-25T10:51:10.489Z,82.47
2023-04-25T10:53:38.955Z,89.99
2023-04-25T10:56:14.381Z,98.72
2023-04-25T10:58:45.886Z,95.34
2023-04-25T11:01:16.955Z,94.52
2023-04-25T11:03:48.639Z,98.34
2023-04-25T11:06:25.218Z,83.56
2023-04-25T11:08:53.907Z,71.70
2023-04-25T11:11:22.193Z,62.13
2023-04-25T11:13:51.214Z,66.50
2023-04-25T11:16:27.490Z,71.89
2023-04-25T11:18:59.601Z,77.40
2023-04-25T11:21:28.749Z,71.71
2023-04-25T11:23:58.392Z,63.95
2023-04-25T11:26:27.149Z,66.91
2023-04-25T11:28:59.534Z,65.73
2023-04-25T11:31:28.983Z,73.87
2023-04-25T11:33:59.419Z,82.93
2023-04-25T11:36:28.683Z,91.57
2023-04-25T11:38:56.623Z,100.00
2023-04-25T11:41:24.443Z,100.00
2023-04-25T11:43:55.617Z,100.00
2023-04-25T11:46:24.394Z,100.00
2023-04-25T11:48:53.949Z,100.00
2023-04-25T11:51:21.945Z,100.00
2023-04-25T11:53:49.916Z,96.29
2023-04-25T11:56:18.061Z,74.65
2023-04-25T11:59:00.139Z,63.44
2023-04-25T12:01:31.840Z,54.08
2023-04-25T12:04:14.984Z,52.16
2023-04-25T12:06:44.573Z,54.08
2023-04-25T12:09:14.528Z,57.70
2023-04-25T12:11:45.911Z,65.77
2023-04-25T12:14:13.942Z,76.48
2023-04-25T12:16:45.837Z,85.65
2023-04-25T12:19:17.556Z,84.10
2023-04-25T12:21:57.220Z,83.89
2023-04-25T12:24:28.375Z,88.30
2023-04-25T12:27:06.639Z,88.57
2023-04-25T12:32:07.851Z,99.12
2023-04-25T12:34:37.168Z,100.00
2023-04-25T12:37:05.027Z,100.00
2023-04-25T12:39:32.810Z,100.00
2023-04-25T12:42:00.784Z,100.00
2023-04-25T12:44:28.676Z,100.00
2023-04-25T12:46:56.878Z,100.00
2023-04-25T12:49:24.658Z,100.00
2023-04-25T12:51:53.806Z,100.00
2023-04-25T12:54:21.691Z,84.95
2023-04-25T12:56:49.623Z,71.62
2023-04-25T12:59:17.439Z,69.38
2023-04-25T13:01:46.614Z,68.02
2023-04-25T13:04:14.686Z,71.83
2023-04-25T13:06:42.658Z,81.60
2023-04-25T13:09:13.893Z,77.77
2023-04-25T13:11:42.311Z,74.84
2023-04-25T13:14:10.125Z,73.38
2023-04-25T13:16:38.051Z,72.98
2023-04-25T13:19:06.550Z,73.33
2023-04-25T13:21:34.375Z,75.47
2023-04-25T13:24:02.100Z,77.75
2023-04-25T13:26:31.267Z,82.31
2023-04-25T13:28:59.034Z,89.65
2023-04-25T13:31:27.150Z,99.41
2023-04-25T13:33:55.057Z,98.48
2023-04-25T13:36:22.889Z,100.00
2023-04-25T13:38:51.453Z,100.00
2023-04-25T13:41:19.981Z,100.00
2023-04-25T13:43:50.011Z,100.00
2023-04-25T13:48:49.724Z,100.00
2023-04-25T13:51:18.666Z,100.00
2023-04-25T13:53:47.443Z,100.00
2023-04-25T13:56:15.246Z,100.00
2023-04-25T13:58:43.149Z,100.00
2023-04-25T14:01:12.470Z,100.00
2023-04-25T14:03:40.367Z,100.00
2023-04-25T14:06:09.638Z,100.00
2023-04-25T14:08:37.470Z,100.00
2023-04-25T14:11:05.282Z,100.00
2023-04-25T14:13:33.095Z,100.00
2023-04-25T14:16:01.078Z,100.00
2023-04-25T14:18:30.157Z,100.00
2023-04-25T14:20:57.937Z,100.00
2023-04-25T14:23:25.802Z,100.00
2023-04-25T14:25:53.601Z,100.00
2023-04-25T14:28:22.275Z,100.00
2023-04-25T14:30:50.024Z,100.00
2023-04-25T14:33:17.818Z,100.00
2023-04-25T14:35:47.172Z,100.00
2023-04-25T14:38:15.558Z,100.00
2023-04-25T14:40:43.551Z,99.53
2023-04-25T14:43:11.504Z,95.42
2023-04-25T14:45:39.286Z,79.00
2023-04-25T14:48:07.776Z,82.94
2023-04-25T14:50:35.830Z,93.63
2023-04-25T14:53:04.928Z,99.03
2023-04-25T14:55:32.784Z,100.00
2023-04-25T14:58:00.887Z,100.00
2023-04-25T15:00:29.233Z,100.00
2023-04-25T15:02:58.205Z,100.00
2023-04-25T15:05:26.559Z,100.00
2023-04-25T15:07:54.268Z,100.00
2023-04-25T15:10:24.811Z,88.91
2023-04-25T15:12:54.520Z,95.26
2023-04-25T15:15:26.912Z,95.62
2023-04-25T15:17:58.744Z,94.93
2023-04-25T15:20:28.497Z,96.28
2023-04-25T15:22:56.473Z,100.00
2023-04-25T15:25:25.797Z,100.00
2023-04-25T15:27:55.858Z,96.53
2023-04-25T15:30:23.903Z,90.90
2023-04-25T15:32:52.502Z,98.42
2023-04-25T15:35:22.746Z,100.00
2023-04-25T15:37:51.610Z,100.00
2023-04-25T15:40:19.758Z,85.07
2023-04-25T15:42:51.652Z,82.78
2023-04-25T15:45:20.785Z,80.97
2023-04-25T15:47:49.037Z,73.58
2023-04-25T15:50:16.918Z,74.54
2023-04-25T15:52:44.789Z,76.16
2023-04-25T15:55:14.381Z,74.64
2023-04-25T15:57:42.508Z,79.39
2023-04-25T16:00:15.041Z,74.21
2023-04-25T16:02:44.281Z,73.37
2023-04-25T16:05:13.152Z,74.97
2023-04-25T16:07:42.840Z,78.96
2023-04-25T16:10:12.148Z,83.48
2023-04-25T16:12:40.287Z,84.30
2023-04-25T16:15:09.009Z,82.96
2023-04-25T16:17:38.314Z,84.04
2023-04-25T16:20:10.458Z,89.62
2023-04-25T16:22:39.435Z,82.13
2023-04-25T16:25:08.089Z,85.57
2023-04-25T16:27:52.435Z,97.17
2023-04-25T16:30:28.515Z,100.00
2023-04-25T16:32:58.307Z,100.00
2023-04-25T16:35:37.076Z,100.00
2023-04-25T16:38:26.967Z,100.00
2023-04-25T16:40:55.145Z,100.00
2023-04-25T16:43:22.918Z,100.00
2023-04-25T16:45:50.727Z,100.00
2023-04-25T16:48:20.842Z,100.00
2023-04-25T16:50:48.673Z,100.00
2023-04-25T16:53:17.474Z,100.00
2023-04-25T16:55:45.640Z,100.00
2023-04-25T16:58:14.462Z,100.00
2023-04-25T17:00:42.872Z,100.00
2023-04-25T17:03:11.005Z,100.00
2023-04-25T17:05:40.681Z,100.00
2023-04-25T17:08:08.496Z,100.00
2023-04-25T17:10:36.424Z,100.00
2023-04-25T17:13:04.255Z,100.00
2023-04-25T17:15:34.162Z,100.00
2023-04-25T17:18:02.395Z,100.00
2023-04-25T17:20:30.266Z,100.00
2023-04-25T17:22:59.880Z,100.00
2023-04-25T17:25:27.769Z,100.00
2023-04-25T17:27:55.914Z,100.00
2023-04-25T17:30:24.073Z,100.00
2023-04-25T17:32:52.404Z,100.00
2023-04-25T17:35:20.631Z,100.00
2023-04-25T17:37:51.406Z,100.00
2023-04-25T17:40:21.471Z,100.00
2023-04-25T17:42:49.320Z,100.00
2023-04-25T17:45:17.687Z,100.00
2023-04-25T17:47:45.673Z,100.00
2023-04-25T17:50:16.579Z,100.00
2023-04-25T17:52:48.253Z,100.00
2023-04-25T17:55:16.174Z,100.00
2023-04-25T17:57:45.330Z,100.00
2023-04-25T18:00:14.059Z,100.00
2023-04-25T18:02:41.968Z,100.00
2023-04-25T18:05:10.925Z,100.00
2023-04-25T18:07:39.239Z,100.00
2023-04-25T18:10:10.147Z,100.00
2023-04-25T18:12:38.305Z,100.00
2023-04-25T18:15:09.274Z,100.00
2023-04-25T18:17:40.393Z,100.00
2023-04-25T18:20:11.976Z,100.00
2023-04-25T18:22:40.320Z,100.00
2023-04-25T18:25:10.185Z,100.00
2023-04-25T18:27:38.402Z,100.00
2023-04-25T18:30:10.640Z,100.00
2023-04-25T18:32:39.195Z,100.00
2023-04-25T18:35:10.001Z,100.00
2023-04-25T18:37:40.186Z,100.00
2023-04-25T18:40:12.908Z,100.00
2023-04-25T18:42:40.795Z,100.00
2023-04-25T18:45:11.928Z,100.00
2023-04-25T18:47:39.846Z,100.00
2023-04-25T18:50:09.389Z,100.00
2023-04-25T18:52:37.330Z,100.00
2023-04-25T18:55:05.856Z,100.00
2023-04-25T18:57:34.452Z,100.00
2023-04-25T19:00:05.263Z,100.00
2023-04-25T19:02:36.998Z,100.00
2023-04-25T19:05:05.693Z,100.00
2023-04-25T19:07:33.481Z,100.00
2023-04-25T19:10:01.337Z,100.00
2023-04-25T19:12:29.134Z,100.00
2023-04-25T19:14:57.135Z,100.00
2023-04-25T19:17:25.330Z,100.00
2023-04-25T19:19:54.616Z,100.00
2023-04-25T19:22:22.453Z,100.00
2023-04-25T19:24:55.681Z,100.00
2023-04-25T19:27:37.050Z,100.00
2023-04-25T19:30:08.813Z,100.00
2023-04-25T19:32:37.072Z,100.00
2023-04-25T19:35:10.893Z,100.00
2023-04-25T19:37:41.108Z,100.00
2023-04-25T19:40:10.252Z,100.00
2023-04-25T19:42:38.061Z,100.00
2023-04-25T19:45:06.934Z,100.00
2023-04-25T19:47:38.494Z,100.00
2023-04-25T19:50:10.482Z,100.00
2023-04-25T19:52:38.925Z,100.00
2023-04-25T19:55:08.169Z,100.00
2023-04-25T19:57:38.122Z,100.00
2023-04-25T20:00:10.905Z,100.00
2023-04-25T20:02:39.503Z,100.00
2023-04-25T20:05:10.110Z,100.00
2023-04-25T20:07:37.916Z,100.00
2023-04-25T20:10:07.983Z,100.00
2023-04-25T20:12:37.695Z,100.00
2023-04-25T20:15:06.761Z,100.00
2023-04-25T20:17:34.771Z,100.00
2023-04-25T20:20:04.104Z,100.00
2023-04-25T20:22:36.270Z,100.00
2023-04-25T20:25:05.486Z,100.00
2023-04-25T20:27:33.412Z,100.00
2023-04-25T20:30:04.948Z,100.00
2023-04-25T20:32:41.053Z,100.00
2023-04-25T20:35:10.750Z,100.00
2023-04-25T20:37:39.998Z,100.00
2023-04-25T20:40:09.838Z,100.00
2023-04-25T20:42:38.343Z,100.00
2023-04-25T20:45:12.542Z,100.00
2023-04-25T20:47:41.426Z,100.00
2023-04-25T20:50:10.981Z,100.00
2023-04-25T20:52:40.142Z,100.00
2023-04-25T20:55:10.875Z,100.00
2023-04-25T20:57:39.008Z,100.00
2023-04-25T21:00:15.992Z,100.00
2023-04-25T21:02:43.873Z,100.00
2023-04-25T21:05:11.913Z,100.00
2023-04-25T21:07:41.228Z,100.00
2023-04-25T21:10:09.667Z,100.00
2023-04-25T21:12:37.548Z,100.00
2023-04-25T21:15:05.995Z,100.00
2023-04-25T21:17:33.996Z,100.00
2023-04-25T21:20:01.871Z,100.00
2023-04-25T21:22:29.987Z,100.00
2023-04-25T21:25:05.931Z,100.00
2023-04-25T21:27:34.261Z,100.00
2023-04-25T21:30:02.173Z,100.00
2023-04-25T21:32:31.341Z,100.00
2023-04-25T21:34:59.248Z,100.00
2023-04-25T21:37:27.068Z,100.00
2023-04-25T21:39:55.753Z,100.00
2023-04-25T21:42:25.098Z,100.00
2023-04-25T21:44:52.982Z,100.00
2023-04-25T21:47:21.124Z,100.00
2023-04-25T21:49:49.081Z,100.00
2023-04-25T21:52:16.945Z,100.00
2023-04-25T21:54:44.765Z,100.00
2023-04-25T21:57:12.798Z,100.00
2023-04-25T21:59:42.026Z,100.00
2023-04-25T22:02:10.506Z,100.00
2023-04-25T22:04:38.709Z,100.00
2023-04-25T22:07:06.650Z,100.00
2023-04-25T22:09:43.842Z,100.00
2023-04-25T22:12:19.677Z,100.00
2023-04-25T22:14:49.041Z,100.00
2023-04-25T22:17:17.882Z,100.00
2023-04-25T22:19:46.631Z,100.00
2023-04-25T22:22:14.456Z,100.00
2023-04-25T22:24:42.442Z,100.00
2023-04-25T22:27:11.305Z,100.00
2023-04-25T22:29:39.193Z,100.00
2023-04-25T22:32:08.825Z,100.00
2023-04-25T22:34:37.020Z,100.00
2023-04-25T22:37:04.822Z,100.00
2023-04-25T22:39:32.585Z,100.00
2023-04-25T22:42:00.669Z,100.00
2023-04-25T22:44:28.634Z,100.00
2023-04-25T22:46:56.529Z,100.00
2023-04-25T22:49:26.640Z,100.00
2023-04-25T22:51:56.794Z,100.00
2023-04-25T22:54:24.740Z,100.00
2023-04-25T22:56:52.845Z,100.00
2023-04-25T22:59:21.098Z,100.00
2023-04-25T23:01:50.025Z,100.00
2023-04-25T23:04:19.080Z,100.00
2023-04-25T23:06:48.784Z,100.00
2023-04-25T23:09:17.023Z,100.00
2023-04-25T23:11:44.877Z,100.00
2023-04-25T23:14:13.026Z,100.00
2023-04-25T23:16:41.763Z,100.00
2023-04-25T23:19:09.627Z,100.00
2023-04-25T23:21:37.433Z,100.00
2023-04-25T23:24:07.291Z,100.00
2023-04-25T23:26:35.187Z,100.00
2023-04-25T23:29:02.971Z,100.00
2023-04-25T23:31:32.309Z,100.00
2023-04-25T23:34:00.294Z,100.00
2023-04-25T23:36:28.164Z,100.00
2023-04-25T23:38:56.366Z,100.00
2023-04-25T23:41:26.180Z,100.00
2023-04-25T23:43:53.975Z,100.00
2023-04-25T23:46:22.065Z,100.00
2023-04-25T23:48:50.275Z,100.00
2023-04-25T23:51:18.382Z,100.00
2023-04-25T23:53:46.207Z,100.00
2023-04-25T23:56:14.384Z,100.00
2023-04-25T23:58:43.551Z,100.00
